sensor_id;sensor_type;location;lat;lon;timestamp;P1;durP1;ratioP1;P2;durP2;ratioP2
6434;SDS011;3250;42.694;23.278;2023-09-07T00:00:29;15.32;;;6.28;;
6434;SDS011;3250;42.694;23.278;2023-09-07T00:02:55;11.20;;;6.25;;
6434;SDS011;3250;42.694;23.278;2023-09-07T00:05:20;10.50;;;5.90;;
6434;SDS011;3250;42.694;23.278;2023-09-07T00:07:45;11.67;;;6.00;;
6434;SDS011;3250;42.694;23.278;2023-09-07T00:10:11;8.68;;;5.72;;
6434;SDS011;3250;42.694;23.278;2023-09-07T00:12:36;9.98;;;5.53;;
6434;SDS011;3250;42.694;23.278;2023-09-07T00:15:04;8.77;;;5.45;;
6434;SDS011;3250;42.694;23.278;2023-09-07T00:17:31;9.07;;;5.93;;
6434;SDS011;3250;42.694;23.278;2023-09-07T00:19:57;8.73;;;6.13;;
6434;SDS011;3250;42.694;23.278;2023-09-07T00:22:23;8.85;;;6.13;;
6434;SDS011;3250;42.694;23.278;2023-09-07T00:24:50;11.20;;;6.82;;
6434;SDS011;3250;42.694;23.278;2023-09-07T00:27:16;9.25;;;6.25;;
6434;SDS011;3250;42.694;23.278;2023-09-07T00:29:41;9.38;;;6.00;;
6434;SDS011;3250;42.694;23.278;2023-09-07T00:32:06;7.78;;;6.43;;
6434;SDS011;3250;42.694;23.278;2023-09-07T00:34:32;8.93;;;6.33;;
6434;SDS011;3250;42.694;23.278;2023-09-07T00:36:57;10.20;;;6.87;;
6434;SDS011;3250;42.694;23.278;2023-09-07T00:39:23;11.15;;;7.00;;
6434;SDS011;3250;42.694;23.278;2023-09-07T00:41:48;10.93;;;6.68;;
6434;SDS011;3250;42.694;23.278;2023-09-07T00:44:14;10.93;;;6.87;;
6434;SDS011;3250;42.694;23.278;2023-09-07T00:46:39;9.13;;;7.10;;
6434;SDS011;3250;42.694;23.278;2023-09-07T00:49:05;9.37;;;6.70;;
6434;SDS011;3250;42.694;23.278;2023-09-07T00:51:30;7.73;;;6.77;;
6434;SDS011;3250;42.694;23.278;2023-09-07T00:53:57;11.63;;;6.50;;
6434;SDS011;3250;42.694;23.278;2023-09-07T00:56:24;10.10;;;7.10;;
6434;SDS011;3250;42.694;23.278;2023-09-07T00:58:51;10.38;;;7.10;;
6434;SDS011;3250;42.694;23.278;2023-09-07T01:01:19;11.17;;;7.07;;
6434;SDS011;3250;42.694;23.278;2023-09-07T01:03:45;9.10;;;7.20;;
6434;SDS011;3250;42.694;23.278;2023-09-07T01:06:22;10.57;;;7.60;;
6434;SDS011;3250;42.694;23.278;2023-09-07T01:08:54;11.25;;;8.00;;
6434;SDS011;3250;42.694;23.278;2023-09-07T01:11:22;9.68;;;7.10;;
6434;SDS011;3250;42.694;23.278;2023-09-07T01:13:48;11.47;;;8.83;;
6434;SDS011;3250;42.694;23.278;2023-09-07T01:16:14;10.77;;;8.30;;
6434;SDS011;3250;42.694;23.278;2023-09-07T01:18:39;10.10;;;8.03;;
6434;SDS011;3250;42.694;23.278;2023-09-07T01:21:06;11.20;;;8.47;;
6434;SDS011;3250;42.694;23.278;2023-09-07T01:23:36;8.18;;;7.38;;
6434;SDS011;3250;42.694;23.278;2023-09-07T01:26:02;12.82;;;7.97;;
6434;SDS011;3250;42.694;23.278;2023-09-07T01:28:29;10.77;;;8.10;;
6434;SDS011;3250;42.694;23.278;2023-09-07T01:30:54;12.60;;;8.43;;
6434;SDS011;3250;42.694;23.278;2023-09-07T01:33:20;13.33;;;8.03;;
6434;SDS011;3250;42.694;23.278;2023-09-07T01:35:45;9.97;;;8.20;;
6434;SDS011;3250;42.694;23.278;2023-09-07T01:38:11;12.05;;;8.27;;
6434;SDS011;3250;42.694;23.278;2023-09-07T01:40:36;14.20;;;9.33;;
6434;SDS011;3250;42.694;23.278;2023-09-07T01:43:02;12.87;;;8.80;;
6434;SDS011;3250;42.694;23.278;2023-09-07T01:45:27;11.43;;;8.48;;
6434;SDS011;3250;42.694;23.278;2023-09-07T01:47:53;14.17;;;8.93;;
6434;SDS011;3250;42.694;23.278;2023-09-07T01:50:18;10.60;;;8.77;;
6434;SDS011;3250;42.694;23.278;2023-09-07T01:52:46;13.40;;;9.13;;
6434;SDS011;3250;42.694;23.278;2023-09-07T01:55:13;12.45;;;8.60;;
6434;SDS011;3250;42.694;23.278;2023-09-07T01:57:39;14.20;;;8.43;;
6434;SDS011;3250;42.694;23.278;2023-09-07T02:00:04;14.17;;;9.20;;
6434;SDS011;3250;42.694;23.278;2023-09-07T02:02:30;13.10;;;9.40;;
6434;SDS011;3250;42.694;23.278;2023-09-07T02:04:56;15.23;;;9.53;;
6434;SDS011;3250;42.694;23.278;2023-09-07T02:07:21;12.57;;;9.98;;
6434;SDS011;3250;42.694;23.278;2023-09-07T02:09:46;14.25;;;9.23;;
6434;SDS011;3250;42.694;23.278;2023-09-07T02:12:12;14.20;;;9.70;;
6434;SDS011;3250;42.694;23.278;2023-09-07T02:14:37;13.48;;;10.20;;
6434;SDS011;3250;42.694;23.278;2023-09-07T02:17:03;13.27;;;9.85;;
6434;SDS011;3250;42.694;23.278;2023-09-07T02:19:28;13.50;;;9.43;;
6434;SDS011;3250;42.694;23.278;2023-09-07T02:21:54;12.17;;;9.33;;
6434;SDS011;3250;42.694;23.278;2023-09-07T02:24:19;12.53;;;9.57;;
6434;SDS011;3250;42.694;23.278;2023-09-07T02:26:44;15.05;;;9.95;;
6434;SDS011;3250;42.694;23.278;2023-09-07T02:29:13;14.57;;;10.10;;
6434;SDS011;3250;42.694;23.278;2023-09-07T02:31:42;13.20;;;10.05;;
6434;SDS011;3250;42.694;23.278;2023-09-07T02:34:07;13.32;;;9.68;;
6434;SDS011;3250;42.694;23.278;2023-09-07T02:36:33;13.90;;;10.13;;
6434;SDS011;3250;42.694;23.278;2023-09-07T02:39:02;13.18;;;9.68;;
6434;SDS011;3250;42.694;23.278;2023-09-07T02:41:28;12.95;;;10.13;;
6434;SDS011;3250;42.694;23.278;2023-09-07T02:43:54;11.90;;;9.75;;
6434;SDS011;3250;42.694;23.278;2023-09-07T02:46:19;16.85;;;9.70;;
6434;SDS011;3250;42.694;23.278;2023-09-07T02:48:44;13.73;;;10.00;;
6434;SDS011;3250;42.694;23.278;2023-09-07T02:51:10;12.53;;;10.07;;
6434;SDS011;3250;42.694;23.278;2023-09-07T02:53:35;12.05;;;8.82;;
6434;SDS011;3250;42.694;23.278;2023-09-07T02:56:00;12.48;;;9.18;;
6434;SDS011;3250;42.694;23.278;2023-09-07T02:58:29;15.45;;;9.55;;
6434;SDS011;3250;42.694;23.278;2023-09-07T03:00:54;16.55;;;10.93;;
6434;SDS011;3250;42.694;23.278;2023-09-07T03:03:20;12.88;;;9.25;;
6434;SDS011;3250;42.694;23.278;2023-09-07T03:05:45;16.00;;;11.33;;
6434;SDS011;3250;42.694;23.278;2023-09-07T03:08:10;14.73;;;10.93;;
6434;SDS011;3250;42.694;23.278;2023-09-07T03:10:36;15.30;;;10.20;;
6434;SDS011;3250;42.694;23.278;2023-09-07T03:13:04;16.05;;;11.07;;
6434;SDS011;3250;42.694;23.278;2023-09-07T03:15:30;13.02;;;10.27;;
6434;SDS011;3250;42.694;23.278;2023-09-07T03:17:56;15.98;;;10.15;;
6434;SDS011;3250;42.694;23.278;2023-09-07T03:20:21;15.90;;;10.93;;
6434;SDS011;3250;42.694;23.278;2023-09-07T03:22:47;16.10;;;11.70;;
6434;SDS011;3250;42.694;23.278;2023-09-07T03:25:13;16.13;;;11.37;;
6434;SDS011;3250;42.694;23.278;2023-09-07T03:27:38;23.13;;;10.93;;
6434;SDS011;3250;42.694;23.278;2023-09-07T03:30:05;16.52;;;10.70;;
6434;SDS011;3250;42.694;23.278;2023-09-07T03:32:34;15.15;;;11.25;;
6434;SDS011;3250;42.694;23.278;2023-09-07T03:34:59;16.53;;;11.53;;
6434;SDS011;3250;42.694;23.278;2023-09-07T03:37:26;17.10;;;11.73;;
6434;SDS011;3250;42.694;23.278;2023-09-07T03:39:53;16.23;;;11.77;;
6434;SDS011;3250;42.694;23.278;2023-09-07T03:42:18;15.47;;;11.13;;
6434;SDS011;3250;42.694;23.278;2023-09-07T03:44:43;17.57;;;12.00;;
6434;SDS011;3250;42.694;23.278;2023-09-07T03:47:09;15.00;;;11.80;;
6434;SDS011;3250;42.694;23.278;2023-09-07T03:49:36;18.63;;;11.88;;
6434;SDS011;3250;42.694;23.278;2023-09-07T03:52:01;15.40;;;12.52;;
6434;SDS011;3250;42.694;23.278;2023-09-07T03:54:26;15.60;;;11.03;;
6434;SDS011;3250;42.694;23.278;2023-09-07T03:56:52;20.90;;;12.60;;
6434;SDS011;3250;42.694;23.278;2023-09-07T03:59:18;15.85;;;12.48;;
6434;SDS011;3250;42.694;23.278;2023-09-07T04:01:44;21.43;;;12.63;;
6434;SDS011;3250;42.694;23.278;2023-09-07T04:04:09;17.80;;;11.87;;
6434;SDS011;3250;42.694;23.278;2023-09-07T04:06:34;16.40;;;12.97;;
6434;SDS011;3250;42.694;23.278;2023-09-07T04:09:00;17.80;;;13.23;;
6434;SDS011;3250;42.694;23.278;2023-09-07T04:11:25;19.17;;;12.75;;
6434;SDS011;3250;42.694;23.278;2023-09-07T04:13:51;17.63;;;13.23;;
6434;SDS011;3250;42.694;23.278;2023-09-07T04:16:16;16.27;;;13.20;;
6434;SDS011;3250;42.694;23.278;2023-09-07T04:18:42;16.23;;;13.33;;
6434;SDS011;3250;42.694;23.278;2023-09-07T04:21:09;16.98;;;12.70;;
6434;SDS011;3250;42.694;23.278;2023-09-07T04:23:35;17.48;;;13.73;;
6434;SDS011;3250;42.694;23.278;2023-09-07T04:26:05;20.77;;;13.82;;
6434;SDS011;3250;42.694;23.278;2023-09-07T04:28:35;18.98;;;12.82;;
6434;SDS011;3250;42.694;23.278;2023-09-07T04:31:02;17.30;;;13.00;;
6434;SDS011;3250;42.694;23.278;2023-09-07T04:33:31;18.58;;;13.50;;
6434;SDS011;3250;42.694;23.278;2023-09-07T04:36:05;20.02;;;14.43;;
6434;SDS011;3250;42.694;23.278;2023-09-07T04:38:38;17.88;;;13.30;;
6434;SDS011;3250;42.694;23.278;2023-09-07T04:41:08;18.77;;;13.53;;
6434;SDS011;3250;42.694;23.278;2023-09-07T04:43:38;17.50;;;13.15;;
6434;SDS011;3250;42.694;23.278;2023-09-07T04:46:08;20.17;;;13.23;;
6434;SDS011;3250;42.694;23.278;2023-09-07T04:48:34;16.17;;;12.13;;
6434;SDS011;3250;42.694;23.278;2023-09-07T04:53:30;18.65;;;12.70;;
6434;SDS011;3250;42.694;23.278;2023-09-07T04:55:57;16.42;;;12.63;;
6434;SDS011;3250;42.694;23.278;2023-09-07T04:58:23;21.08;;;13.60;;
6434;SDS011;3250;42.694;23.278;2023-09-07T05:00:49;17.73;;;13.20;;
6434;SDS011;3250;42.694;23.278;2023-09-07T05:03:14;16.02;;;11.77;;
6434;SDS011;3250;42.694;23.278;2023-09-07T05:05:41;15.13;;;11.83;;
6434;SDS011;3250;42.694;23.278;2023-09-07T05:08:06;15.68;;;10.93;;
6434;SDS011;3250;42.694;23.278;2023-09-07T05:10:35;15.88;;;10.95;;
6434;SDS011;3250;42.694;23.278;2023-09-07T05:13:02;14.13;;;11.50;;
6434;SDS011;3250;42.694;23.278;2023-09-07T05:15:27;14.95;;;11.10;;
6434;SDS011;3250;42.694;23.278;2023-09-07T05:17:53;15.02;;;11.38;;
6434;SDS011;3250;42.694;23.278;2023-09-07T05:20:19;16.98;;;11.65;;
6434;SDS011;3250;42.694;23.278;2023-09-07T05:22:45;22.85;;;12.48;;
6434;SDS011;3250;42.694;23.278;2023-09-07T05:25:11;18.20;;;11.32;;
6434;SDS011;3250;42.694;23.278;2023-09-07T05:27:37;16.75;;;12.07;;
6434;SDS011;3250;42.694;23.278;2023-09-07T05:30:03;19.17;;;11.13;;
6434;SDS011;3250;42.694;23.278;2023-09-07T05:32:29;14.65;;;11.43;;
6434;SDS011;3250;42.694;23.278;2023-09-07T05:34:55;17.92;;;11.52;;
6434;SDS011;3250;42.694;23.278;2023-09-07T05:37:20;21.42;;;11.77;;
6434;SDS011;3250;42.694;23.278;2023-09-07T05:39:46;17.45;;;11.40;;
6434;SDS011;3250;42.694;23.278;2023-09-07T05:42:11;13.95;;;10.32;;
6434;SDS011;3250;42.694;23.278;2023-09-07T05:44:37;21.58;;;11.90;;
6434;SDS011;3250;42.694;23.278;2023-09-07T05:47:03;15.75;;;10.70;;
6434;SDS011;3250;42.694;23.278;2023-09-07T05:49:28;15.70;;;10.20;;
6434;SDS011;3250;42.694;23.278;2023-09-07T05:51:54;14.73;;;10.13;;
6434;SDS011;3250;42.694;23.278;2023-09-07T05:54:19;17.33;;;11.20;;
6434;SDS011;3250;42.694;23.278;2023-09-07T05:56:44;17.75;;;10.98;;
6434;SDS011;3250;42.694;23.278;2023-09-07T05:59:10;18.98;;;11.77;;
6434;SDS011;3250;42.694;23.278;2023-09-07T06:01:35;18.63;;;11.43;;
6434;SDS011;3250;42.694;23.278;2023-09-07T06:04:01;20.35;;;10.85;;
6434;SDS011;3250;42.694;23.278;2023-09-07T06:06:29;15.13;;;10.77;;
6434;SDS011;3250;42.694;23.278;2023-09-07T06:08:54;16.40;;;11.70;;
6434;SDS011;3250;42.694;23.278;2023-09-07T06:11:19;19.02;;;10.02;;
6434;SDS011;3250;42.694;23.278;2023-09-07T06:13:46;22.35;;;11.13;;
6434;SDS011;3250;42.694;23.278;2023-09-07T06:16:12;18.58;;;10.35;;
6434;SDS011;3250;42.694;23.278;2023-09-07T06:18:37;18.33;;;9.38;;
6434;SDS011;3250;42.694;23.278;2023-09-07T06:21:03;14.57;;;9.93;;
6434;SDS011;3250;42.694;23.278;2023-09-07T06:23:30;12.02;;;8.82;;
6434;SDS011;3250;42.694;23.278;2023-09-07T06:25:56;12.70;;;7.70;;
6434;SDS011;3250;42.694;23.278;2023-09-07T06:28:22;14.65;;;8.13;;
6434;SDS011;3250;42.694;23.278;2023-09-07T06:30:47;14.40;;;8.30;;
6434;SDS011;3250;42.694;23.278;2023-09-07T06:33:12;11.38;;;7.40;;
6434;SDS011;3250;42.694;23.278;2023-09-07T06:35:38;11.75;;;7.35;;
6434;SDS011;3250;42.694;23.278;2023-09-07T06:38:03;11.20;;;6.82;;
6434;SDS011;3250;42.694;23.278;2023-09-07T06:40:29;10.95;;;7.43;;
6434;SDS011;3250;42.694;23.278;2023-09-07T06:42:55;7.63;;;6.75;;
6434;SDS011;3250;42.694;23.278;2023-09-07T06:45:21;11.45;;;7.38;;
6434;SDS011;3250;42.694;23.278;2023-09-07T06:47:49;11.85;;;7.38;;
6434;SDS011;3250;42.694;23.278;2023-09-07T06:50:15;10.45;;;7.25;;
6434;SDS011;3250;42.694;23.278;2023-09-07T06:52:41;15.02;;;6.88;;
6434;SDS011;3250;42.694;23.278;2023-09-07T06:55:06;17.60;;;7.05;;
6434;SDS011;3250;42.694;23.278;2023-09-07T06:57:31;12.30;;;8.05;;
6434;SDS011;3250;42.694;23.278;2023-09-07T06:59:58;14.52;;;7.18;;
6434;SDS011;3250;42.694;23.278;2023-09-07T07:02:25;13.75;;;7.03;;
6434;SDS011;3250;42.694;23.278;2023-09-07T07:04:51;12.05;;;6.97;;
6434;SDS011;3250;42.694;23.278;2023-09-07T07:07:16;10.07;;;6.18;;
6434;SDS011;3250;42.694;23.278;2023-09-07T07:09:42;12.13;;;6.72;;
6434;SDS011;3250;42.694;23.278;2023-09-07T07:12:08;9.13;;;6.32;;
6434;SDS011;3250;42.694;23.278;2023-09-07T07:14:33;9.52;;;6.53;;
6434;SDS011;3250;42.694;23.278;2023-09-07T07:16:59;12.70;;;6.35;;
6434;SDS011;3250;42.694;23.278;2023-09-07T07:19:24;12.38;;;6.78;;
6434;SDS011;3250;42.694;23.278;2023-09-07T07:21:50;8.77;;;5.85;;
6434;SDS011;3250;42.694;23.278;2023-09-07T07:24:15;12.15;;;6.90;;
6434;SDS011;3250;42.694;23.278;2023-09-07T07:26:41;13.13;;;6.05;;
6434;SDS011;3250;42.694;23.278;2023-09-07T07:29:06;9.57;;;5.65;;
6434;SDS011;3250;42.694;23.278;2023-09-07T07:31:31;9.43;;;6.25;;
6434;SDS011;3250;42.694;23.278;2023-09-07T07:33:57;7.93;;;6.00;;
6434;SDS011;3250;42.694;23.278;2023-09-07T07:36:23;18.20;;;6.30;;
6434;SDS011;3250;42.694;23.278;2023-09-07T07:38:49;10.85;;;6.07;;
6434;SDS011;3250;42.694;23.278;2023-09-07T07:41:15;12.27;;;6.68;;
6434;SDS011;3250;42.694;23.278;2023-09-07T07:43:40;11.05;;;6.15;;
6434;SDS011;3250;42.694;23.278;2023-09-07T07:46:05;9.82;;;5.97;;
6434;SDS011;3250;42.694;23.278;2023-09-07T07:48:33;9.20;;;5.80;;
6434;SDS011;3250;42.694;23.278;2023-09-07T07:51:02;6.30;;;5.45;;
6434;SDS011;3250;42.694;23.278;2023-09-07T07:53:29;7.30;;;5.30;;
6434;SDS011;3250;42.694;23.278;2023-09-07T07:55:56;7.13;;;4.90;;
6434;SDS011;3250;42.694;23.278;2023-09-07T07:58:22;7.43;;;5.18;;
6434;SDS011;3250;42.694;23.278;2023-09-07T08:00:47;8.45;;;4.60;;
6434;SDS011;3250;42.694;23.278;2023-09-07T08:03:14;10.63;;;5.40;;
6434;SDS011;3250;42.694;23.278;2023-09-07T08:05:39;11.65;;;5.15;;
6434;SDS011;3250;42.694;23.278;2023-09-07T08:08:05;9.70;;;5.25;;
6434;SDS011;3250;42.694;23.278;2023-09-07T08:10:34;8.10;;;5.05;;
6434;SDS011;3250;42.694;23.278;2023-09-07T08:13:01;13.55;;;4.75;;
6434;SDS011;3250;42.694;23.278;2023-09-07T08:15:28;8.70;;;5.00;;
6434;SDS011;3250;42.694;23.278;2023-09-07T08:17:54;5.90;;;4.45;;
6434;SDS011;3250;42.694;23.278;2023-09-07T08:20:20;8.65;;;4.70;;
6434;SDS011;3250;42.694;23.278;2023-09-07T08:22:45;8.65;;;5.00;;
6434;SDS011;3250;42.694;23.278;2023-09-07T08:25:12;11.80;;;4.68;;
6434;SDS011;3250;42.694;23.278;2023-09-07T08:27:39;9.00;;;5.03;;
6434;SDS011;3250;42.694;23.278;2023-09-07T08:30:09;5.50;;;4.68;;
6434;SDS011;3250;42.694;23.278;2023-09-07T08:32:42;8.02;;;4.95;;
6434;SDS011;3250;42.694;23.278;2023-09-07T08:35:10;7.38;;;4.75;;
6434;SDS011;3250;42.694;23.278;2023-09-07T08:37:40;6.30;;;4.57;;
6434;SDS011;3250;42.694;23.278;2023-09-07T08:40:06;5.95;;;4.35;;
6434;SDS011;3250;42.694;23.278;2023-09-07T08:42:33;5.72;;;4.68;;
6434;SDS011;3250;42.694;23.278;2023-09-07T08:45:01;9.02;;;4.25;;
6434;SDS011;3250;42.694;23.278;2023-09-07T08:47:31;9.00;;;4.63;;
6434;SDS011;3250;42.694;23.278;2023-09-07T08:49:59;6.43;;;4.38;;
6434;SDS011;3250;42.694;23.278;2023-09-07T08:52:25;7.68;;;4.68;;
6434;SDS011;3250;42.694;23.278;2023-09-07T08:54:52;10.48;;;5.00;;
6434;SDS011;3250;42.694;23.278;2023-09-07T08:57:18;14.15;;;4.75;;
6434;SDS011;3250;42.694;23.278;2023-09-07T08:59:49;6.18;;;4.30;;
6434;SDS011;3250;42.694;23.278;2023-09-07T09:02:14;7.25;;;4.65;;
6434;SDS011;3250;42.694;23.278;2023-09-07T09:04:41;6.72;;;4.85;;
6434;SDS011;3250;42.694;23.278;2023-09-07T09:07:07;8.35;;;4.97;;
6434;SDS011;3250;42.694;23.278;2023-09-07T09:09:32;10.43;;;5.57;;
6434;SDS011;3250;42.694;23.278;2023-09-07T09:12:07;7.70;;;4.65;;
6434;SDS011;3250;42.694;23.278;2023-09-07T09:14:34;12.75;;;4.90;;
6434;SDS011;3250;42.694;23.278;2023-09-07T09:17:00;8.60;;;4.43;;
6434;SDS011;3250;42.694;23.278;2023-09-07T09:19:32;8.25;;;4.22;;
6434;SDS011;3250;42.694;23.278;2023-09-07T09:21:58;5.38;;;4.22;;
6434;SDS011;3250;42.694;23.278;2023-09-07T09:24:24;5.03;;;3.88;;
6434;SDS011;3250;42.694;23.278;2023-09-07T09:26:50;11.27;;;4.38;;
6434;SDS011;3250;42.694;23.278;2023-09-07T09:29:16;6.45;;;4.30;;
6434;SDS011;3250;42.694;23.278;2023-09-07T09:31:41;5.95;;;3.92;;
6434;SDS011;3250;42.694;23.278;2023-09-07T09:34:08;6.20;;;4.25;;
6434;SDS011;3250;42.694;23.278;2023-09-07T09:36:36;6.57;;;4.68;;
6434;SDS011;3250;42.694;23.278;2023-09-07T09:39:02;8.50;;;5.05;;
6434;SDS011;3250;42.694;23.278;2023-09-07T09:41:30;7.15;;;4.35;;
6434;SDS011;3250;42.694;23.278;2023-09-07T09:43:58;9.00;;;4.20;;
6434;SDS011;3250;42.694;23.278;2023-09-07T09:46:25;5.93;;;4.78;;
6434;SDS011;3250;42.694;23.278;2023-09-07T09:48:52;6.38;;;4.32;;
6434;SDS011;3250;42.694;23.278;2023-09-07T09:51:20;9.10;;;4.28;;
6434;SDS011;3250;42.694;23.278;2023-09-07T09:53:45;6.38;;;4.45;;
6434;SDS011;3250;42.694;23.278;2023-09-07T09:56:12;8.38;;;4.00;;
6434;SDS011;3250;42.694;23.278;2023-09-07T09:58:37;6.70;;;3.85;;
6434;SDS011;3250;42.694;23.278;2023-09-07T10:01:04;9.10;;;4.10;;
6434;SDS011;3250;42.694;23.278;2023-09-07T10:03:46;10.35;;;4.93;;
6434;SDS011;3250;42.694;23.278;2023-09-07T10:06:22;9.63;;;4.82;;
6434;SDS011;3250;42.694;23.278;2023-09-07T10:08:59;5.90;;;4.03;;
6434;SDS011;3250;42.694;23.278;2023-09-07T10:11:32;10.10;;;4.32;;
6434;SDS011;3250;42.694;23.278;2023-09-07T10:13:59;5.15;;;3.45;;
6434;SDS011;3250;42.694;23.278;2023-09-07T10:16:29;6.10;;;3.70;;
6434;SDS011;3250;42.694;23.278;2023-09-07T10:19:13;7.72;;;4.25;;
6434;SDS011;3250;42.694;23.278;2023-09-07T10:21:42;6.10;;;3.80;;
6434;SDS011;3250;42.694;23.278;2023-09-07T10:24:08;6.85;;;4.00;;
6434;SDS011;3250;42.694;23.278;2023-09-07T10:26:34;6.78;;;4.05;;
6434;SDS011;3250;42.694;23.278;2023-09-07T10:29:00;7.32;;;3.70;;
6434;SDS011;3250;42.694;23.278;2023-09-07T10:31:29;11.30;;;4.20;;
6434;SDS011;3250;42.694;23.278;2023-09-07T10:34:07;9.65;;;4.22;;
6434;SDS011;3250;42.694;23.278;2023-09-07T10:36:39;7.63;;;4.68;;
6434;SDS011;3250;42.694;23.278;2023-09-07T10:39:05;4.78;;;3.67;;
6434;SDS011;3250;42.694;23.278;2023-09-07T10:41:44;7.72;;;4.45;;
6434;SDS011;3250;42.694;23.278;2023-09-07T10:44:10;7.20;;;4.43;;
6434;SDS011;3250;42.694;23.278;2023-09-07T10:46:37;6.45;;;4.32;;
6434;SDS011;3250;42.694;23.278;2023-09-07T10:49:05;7.80;;;4.20;;
6434;SDS011;3250;42.694;23.278;2023-09-07T10:51:33;4.35;;;3.80;;
6434;SDS011;3250;42.694;23.278;2023-09-07T10:53:58;7.85;;;4.00;;
6434;SDS011;3250;42.694;23.278;2023-09-07T10:56:24;9.40;;;4.50;;
6434;SDS011;3250;42.694;23.278;2023-09-07T10:58:53;7.55;;;5.00;;
6434;SDS011;3250;42.694;23.278;2023-09-07T11:01:19;7.88;;;4.38;;
6434;SDS011;3250;42.694;23.278;2023-09-07T11:03:45;5.32;;;4.20;;
6434;SDS011;3250;42.694;23.278;2023-09-07T11:06:15;8.77;;;4.28;;
6434;SDS011;3250;42.694;23.278;2023-09-07T11:08:44;5.55;;;4.65;;
6434;SDS011;3250;42.694;23.278;2023-09-07T11:11:11;6.32;;;4.45;;
6434;SDS011;3250;42.694;23.278;2023-09-07T11:13:37;6.80;;;4.38;;
6434;SDS011;3250;42.694;23.278;2023-09-07T11:16:02;9.20;;;3.88;;
6434;SDS011;3250;42.694;23.278;2023-09-07T11:18:28;6.43;;;3.70;;
6434;SDS011;3250;42.694;23.278;2023-09-07T11:20:55;7.93;;;3.80;;
6434;SDS011;3250;42.694;23.278;2023-09-07T11:23:21;6.70;;;3.58;;
6434;SDS011;3250;42.694;23.278;2023-09-07T11:25:49;5.28;;;3.90;;
6434;SDS011;3250;42.694;23.278;2023-09-07T11:28:15;5.03;;;3.65;;
6434;SDS011;3250;42.694;23.278;2023-09-07T11:30:52;5.18;;;3.97;;
6434;SDS011;3250;42.694;23.278;2023-09-07T11:33:20;10.65;;;4.43;;
6434;SDS011;3250;42.694;23.278;2023-09-07T11:35:46;4.60;;;3.60;;
6434;SDS011;3250;42.694;23.278;2023-09-07T11:38:13;6.95;;;3.88;;
6434;SDS011;3250;42.694;23.278;2023-09-07T11:40:39;6.25;;;3.42;;
6434;SDS011;3250;42.694;23.278;2023-09-07T11:43:09;4.65;;;3.03;;
6434;SDS011;3250;42.694;23.278;2023-09-07T11:45:34;4.82;;;3.30;;
6434;SDS011;3250;42.694;23.278;2023-09-07T11:48:00;11.20;;;3.85;;
6434;SDS011;3250;42.694;23.278;2023-09-07T11:50:25;5.15;;;3.47;;
6434;SDS011;3250;42.694;23.278;2023-09-07T11:52:51;7.40;;;4.10;;
6434;SDS011;3250;42.694;23.278;2023-09-07T11:55:16;5.32;;;3.92;;
6434;SDS011;3250;42.694;23.278;2023-09-07T11:57:42;5.35;;;3.10;;
6434;SDS011;3250;42.694;23.278;2023-09-07T12:00:08;7.82;;;3.95;;
6434;SDS011;3250;42.694;23.278;2023-09-07T12:02:36;6.38;;;3.75;;
6434;SDS011;3250;42.694;23.278;2023-09-07T12:05:04;7.82;;;3.10;;
6434;SDS011;3250;42.694;23.278;2023-09-07T12:07:30;5.82;;;3.45;;
6434;SDS011;3250;42.694;23.278;2023-09-07T12:09:56;7.13;;;3.28;;
6434;SDS011;3250;42.694;23.278;2023-09-07T12:12:22;7.00;;;3.55;;
6434;SDS011;3250;42.694;23.278;2023-09-07T12:14:48;5.63;;;3.97;;
6434;SDS011;3250;42.694;23.278;2023-09-07T12:17:13;6.43;;;2.97;;
6434;SDS011;3250;42.694;23.278;2023-09-07T12:19:39;6.13;;;3.13;;
6434;SDS011;3250;42.694;23.278;2023-09-07T12:22:06;5.45;;;3.50;;
6434;SDS011;3250;42.694;23.278;2023-09-07T12:24:32;4.20;;;3.50;;
6434;SDS011;3250;42.694;23.278;2023-09-07T12:26:58;8.73;;;3.25;;
6434;SDS011;3250;42.694;23.278;2023-09-07T12:29:24;5.07;;;3.60;;
6434;SDS011;3250;42.694;23.278;2023-09-07T12:31:51;6.38;;;3.83;;
6434;SDS011;3250;42.694;23.278;2023-09-07T12:34:16;5.28;;;3.65;;
6434;SDS011;3250;42.694;23.278;2023-09-07T12:36:41;5.65;;;3.50;;
6434;SDS011;3250;42.694;23.278;2023-09-07T12:39:07;5.30;;;4.15;;
6434;SDS011;3250;42.694;23.278;2023-09-07T12:41:32;13.07;;;3.45;;
6434;SDS011;3250;42.694;23.278;2023-09-07T12:43:58;3.40;;;2.88;;
6434;SDS011;3250;42.694;23.278;2023-09-07T12:46:23;8.30;;;3.38;;
6434;SDS011;3250;42.694;23.278;2023-09-07T12:48:49;8.10;;;3.40;;
6434;SDS011;3250;42.694;23.278;2023-09-07T12:51:14;4.93;;;3.53;;
6434;SDS011;3250;42.694;23.278;2023-09-07T12:53:41;5.63;;;3.53;;
6434;SDS011;3250;42.694;23.278;2023-09-07T12:56:06;10.77;;;3.30;;
6434;SDS011;3250;42.694;23.278;2023-09-07T12:58:32;3.92;;;3.33;;
6434;SDS011;3250;42.694;23.278;2023-09-07T13:00:58;3.53;;;2.90;;
6434;SDS011;3250;42.694;23.278;2023-09-07T13:03:23;4.10;;;3.20;;
6434;SDS011;3250;42.694;23.278;2023-09-07T13:05:48;5.68;;;3.28;;
6434;SDS011;3250;42.694;23.278;2023-09-07T13:08:14;3.92;;;3.30;;
6434;SDS011;3250;42.694;23.278;2023-09-07T13:10:39;6.43;;;2.90;;
6434;SDS011;3250;42.694;23.278;2023-09-07T13:13:05;6.85;;;3.53;;
6434;SDS011;3250;42.694;23.278;2023-09-07T13:15:31;5.63;;;3.20;;
6434;SDS011;3250;42.694;23.278;2023-09-07T13:17:56;4.20;;;3.00;;
6434;SDS011;3250;42.694;23.278;2023-09-07T13:20:22;5.25;;;3.17;;
6434;SDS011;3250;42.694;23.278;2023-09-07T13:22:47;7.18;;;3.53;;
6434;SDS011;3250;42.694;23.278;2023-09-07T13:25:13;5.47;;;3.85;;
6434;SDS011;3250;42.694;23.278;2023-09-07T13:27:38;5.53;;;3.22;;
6434;SDS011;3250;42.694;23.278;2023-09-07T13:30:04;15.73;;;4.00;;
6434;SDS011;3250;42.694;23.278;2023-09-07T13:32:31;4.13;;;3.15;;
6434;SDS011;3250;42.694;23.278;2023-09-07T13:34:57;5.30;;;3.33;;
6434;SDS011;3250;42.694;23.278;2023-09-07T13:37:23;12.95;;;3.40;;
6434;SDS011;3250;42.694;23.278;2023-09-07T13:39:48;6.22;;;3.45;;
6434;SDS011;3250;42.694;23.278;2023-09-07T13:42:13;6.22;;;3.45;;
6434;SDS011;3250;42.694;23.278;2023-09-07T13:44:39;5.78;;;3.00;;
6434;SDS011;3250;42.694;23.278;2023-09-07T13:47:05;9.70;;;3.53;;
6434;SDS011;3250;42.694;23.278;2023-09-07T13:49:31;5.78;;;3.60;;
6434;SDS011;3250;42.694;23.278;2023-09-07T13:51:57;10.52;;;3.60;;
6434;SDS011;3250;42.694;23.278;2023-09-07T13:54:22;8.98;;;3.45;;
6434;SDS011;3250;42.694;23.278;2023-09-07T13:56:48;5.72;;;3.30;;
6434;SDS011;3250;42.694;23.278;2023-09-07T13:59:13;5.03;;;3.22;;
6434;SDS011;3250;42.694;23.278;2023-09-07T14:01:38;7.22;;;3.58;;
6434;SDS011;3250;42.694;23.278;2023-09-07T14:04:04;9.32;;;3.40;;
6434;SDS011;3250;42.694;23.278;2023-09-07T14:06:30;4.80;;;3.90;;
6434;SDS011;3250;42.694;23.278;2023-09-07T14:08:55;6.40;;;3.35;;
6434;SDS011;3250;42.694;23.278;2023-09-07T14:11:20;7.90;;;4.07;;
6434;SDS011;3250;42.694;23.278;2023-09-07T14:13:47;6.63;;;3.83;;
6434;SDS011;3250;42.694;23.278;2023-09-07T14:16:16;5.80;;;4.03;;
6434;SDS011;3250;42.694;23.278;2023-09-07T14:18:47;7.72;;;4.00;;
6434;SDS011;3250;42.694;23.278;2023-09-07T14:21:14;5.57;;;3.83;;
6434;SDS011;3250;42.694;23.278;2023-09-07T14:23:40;6.65;;;3.28;;
6434;SDS011;3250;42.694;23.278;2023-09-07T14:26:05;4.60;;;3.47;;
6434;SDS011;3250;42.694;23.278;2023-09-07T14:28:31;5.35;;;3.42;;
6434;SDS011;3250;42.694;23.278;2023-09-07T14:30:56;10.27;;;4.13;;
6434;SDS011;3250;42.694;23.278;2023-09-07T14:33:24;5.85;;;4.38;;
6434;SDS011;3250;42.694;23.278;2023-09-07T14:35:50;7.47;;;3.83;;
6434;SDS011;3250;42.694;23.278;2023-09-07T14:38:19;6.22;;;3.60;;
6434;SDS011;3250;42.694;23.278;2023-09-07T14:40:44;6.67;;;3.90;;
6434;SDS011;3250;42.694;23.278;2023-09-07T14:43:10;5.63;;;3.65;;
6434;SDS011;3250;42.694;23.278;2023-09-07T14:45:36;9.18;;;3.83;;
6434;SDS011;3250;42.694;23.278;2023-09-07T14:48:01;11.40;;;3.67;;